MV Lockmaster — WDF4136 — position and weather

sailwx.info

Track history (hours):
 
Tides and Currents Weather Stations Pressure Air Temp Water Temp Dewpoint Dewpoint Depression Visibility Wind Speed Wind Dir Waves Ship Positions

MV Lockmaster

Owner: River Construction, Metaire, LA. More information available from US FCC via Universal Licensing System and Coast Guard Vessel Documentation Center.

Last reported at 2015-Jul-30 22:28 UTC. Time now 2015-Jul-30 23:00 UTC.
Position N 29°60' W 089°59'.

Type: Towing. MMSI: 367448420.

Date/timePositionNaut miles runAvg speedWind from/ knotsBaromVisibWave heightAir tempDewpointWater temp
2015-Jul-30 22:28N 29°60' W 089°59'0 0.0
2015-Jul-30 21:33N 30°00' W 089°59'0 0.0
2015-Jul-30 20:33N 29°60' W 089°59'0 0.0
2015-Jul-30 19:29N 30°00' W 089°59'0 0.0
2015-Jul-30 18:33N 30°00' W 089°59'0 0.0
2015-Jul-30 17:32N 30°00' W 089°59'0 0.0
2015-Jul-30 16:28N 30°00' W 089°59'0 0.0
2015-Jul-30 15:24N 30°00' W 089°59'3 0.2
2015-Jul-29 21:04N 29°58' W 090°02'0 0.0
2015-Jul-29 20:32N 29°58' W 090°02'1 0.5
2015-Jul-29 19:07N 29°57' W 090°01'1 1.3
2015-Jul-29 18:28N 29°58' W 090°02'3 2.9
2015-Jul-29 17:32N 29°60' W 089°59'0 0.0
2015-Jul-29 16:31N 30°00' W 089°59'0 0.0
2015-Jul-29 15:19N 30°00' W 089°59'0 0.0
2015-Jul-29 14:26N 29°60' W 089°59'0 0.0
2015-Jul-29 13:24N 30°00' W 089°59'0 0.0
2015-Jul-29 12:32N 30°00' W 089°59'0 0.0
2015-Jul-29 11:31N 30°00' W 089°59'0 0.0
2015-Jul-29 10:33N 30°00' W 089°59'0 0.0
2015-Jul-29 09:32N 30°00' W 089°59'0 0.0
2015-Jul-29 08:33N 30°00' W 089°59'0 0.0
2015-Jul-29 07:30N 29°60' W 089°59'0 0.0
2015-Jul-29 06:29N 30°00' W 089°59'0 0.0
2015-Jul-29 04:33N 30°00' W 089°59'0 0.0
2015-Jul-29 03:30N 30°00' W 089°59'0 0.0
2015-Jul-29 02:31N 29°60' W 089°59'0 0.0
2015-Jul-29 01:29N 30°00' W 089°59'2 0.4
2015-Jul-28 18:28N 29°58' W 090°02'0 0.0
2015-Jul-28 16:28N 29°58' W 090°02'2 2.3
2015-Jul-28 15:26N 29°60' W 089°59'1 0.6
2015-Jul-28 14:28N 29°60' W 090°00'2 2.1
2015-Jul-28 13:19N 29°58' W 090°02'0 0.0
2015-Jul-28 12:31N 29°58' W 090°02'0 0.4
2015-Jul-28 11:27N 29°57' W 090°02'2 2.6
2015-Jul-28 10:31N 29°55' W 090°04'0 0.2
2015-Jul-28 09:31N 29°56' W 090°04'3 3.2
2015-Jul-28 08:33N 29°57' W 090°00'2 1.9
2015-Jul-28 07:24N 29°55' W 089°58'4 4.4
2015-Jul-28 06:30N 29°58' W 090°02'2 2.2
2015-Jul-28 05:33N 29°60' W 090°01'1 1.0
2015-Jul-28 04:33N 29°60' W 089°59'0 0.0
2015-Jul-28 03:31N 29°60' W 089°59'0 0.0
2015-Jul-28 02:31N 30°00' W 089°59'0 0.0
2015-Jul-28 01:33N 30°00' W 089°59'0 0.0
2015-Jul-28 00:28N 30°00' W 089°59'0 0.0
2015-Jul-27 23:33N 29°60' W 089°59'0 0.0
2015-Jul-27 22:33N 30°00' W 089°59'0 0.0
2015-Jul-27 21:32N 30°00' W 089°59'0 0.0
2015-Jul-27 06:28N 30°00' W 089°59'0 0.0
2015-Jul-27 03:18N 29°60' W 089°59'0 0.0
2015-Jul-27 01:23N 30°00' W 089°59'0 0.0
2015-Jul-27 00:26N 29°60' W 089°59'0 0.0
2015-Jul-26 23:28N 30°00' W 089°59'0 0.0
2015-Jul-26 22:32N 29°60' W 089°59'0 0.0
2015-Jul-26 21:18N 30°00' W 089°59'0 0.0
2015-Jul-26 20:17N 30°00' W 089°59'0 0.0
2015-Jul-26 19:31N 29°60' W 089°59'0 0.0
2015-Jul-26 18:33N 30°00' W 089°59'0 0.0
2015-Jul-26 17:32N 29°60' W 089°59'0 0.0
2015-Jul-26 16:32N 30°00' W 089°59'0 0.0
2015-Jul-26 15:32N 30°00' W 089°59'0 0.1
2015-Jul-26 14:33N 29°60' W 089°59'0 0.1
2015-Jul-26 13:32N 30°00' W 089°59'0 0.0
2015-Jul-26 12:33N 30°00' W 089°59'0 0.0
2015-Jul-26 11:33N 30°00' W 089°59'0 0.0
2015-Jul-26 10:33N 30°00' W 089°59'0 0.0
2015-Jul-26 09:30N 30°00' W 089°59'0 0.0
2015-Jul-26 08:32N 30°00' W 089°59'0 0.0
2015-Jul-26 07:32N 29°60' W 089°59'0 0.0
2015-Jul-26 06:32N 30°00' W 089°59'0 0.0
2015-Jul-26 05:33N 29°60' W 089°59'0 0.0
2015-Jul-26 04:33N 30°00' W 089°59'0 0.0
2015-Jul-26 03:23N 29°60' W 089°59'0 0.0
2015-Jul-25 08:19N 30°00' W 089°59'0 0.1
2015-Jul-25 06:32N 30°00' W 089°59'4 3.5
2015-Jul-25 05:31N 29°58' W 090°02'0 0.3
2015-Jul-25 04:28N 29°57' W 090°02'1 0.7
2015-Jul-25 03:32N 29°58' W 090°02'2 1.8
2015-Jul-25 02:33N 29°60' W 090°01'1 1.2
2015-Jul-25 01:33N 29°60' W 089°59'0 0.0
2015-Jul-25 00:24N 30°00' W 089°59'0 0.0
2015-Jul-24 23:32N 30°00' W 089°59'2 2.3
2015-Jul-24 22:33N 29°59' W 090°02'0 0.0
2015-Jul-24 21:33N 29°59' W 090°02'1 0.8
2015-Jul-24 20:33N 29°58' W 090°02'1 0.5
2015-Jul-24 19:33N 29°57' W 090°02'2 0.8
2015-Jul-24 17:30N 29°56' W 090°00'2 2.4
2015-Jul-24 16:33N 29°58' W 090°02'1 1.0
2015-Jul-24 15:34N 29°59' W 090°01'2 1.6
2015-Jul-24 14:31N 30°00' W 089°59'0 0.0
2015-Jul-24 13:33N 30°00' W 089°59'0 0.0
2015-Jul-24 12:33N 30°00' W 089°59'1 0.9
2015-Jul-24 11:33N 29°60' W 090°00'1 0.0
2015-Jul-23 15:22N 30°00' W 089°59'0 0.0
2015-Jul-23 14:13N 30°00' W 089°59'0 0.0
2015-Jul-23 11:28N 30°00' W 089°59'0 0.0
2015-Jul-23 10:33N 30°00' W 089°59'0 0.0
2015-Jul-23 09:31N 30°00' W 089°59'0 0.0
2015-Jul-23 08:33N 29°60' W 089°59'0 0.0
2015-Jul-23 07:33N 29°60' W 089°59'0 0.0
2015-Jul-23 06:31N 30°00' W 089°59'0 0.0
2015-Jul-23 05:32N 29°60' W 089°59'0 0.1
2015-Jul-23 04:32N 29°60' W 089°59'1 0.6
2015-Jul-23 02:19N 30°00' W 089°58'1 1.8
2015-Jul-23 01:31N 30°00' W 089°59'0 0.0
2015-Jul-23 00:31N 30°00' W 089°59'0 0.0
2015-Jul-22 23:32N 30°00' W 089°59'0 0.0
2015-Jul-22 22:31N 30°00' W 089°59'0 0.0
2015-Jul-22 21:27N 30°00' W 089°59'0 0.0
2015-Jul-22 20:26N 30°00' W 089°59'0 0.0
2015-Jul-22 19:29N 30°00' W 089°59'1 0.0
2015-Jul-21 21:29N 30°00' W 089°58'1 1.1
2015-Jul-21 20:32N 30°00' W 089°59'0 0.0
2015-Jul-21 19:31N 30°00' W 089°59'0 0.0
2015-Jul-21 18:33N 30°00' W 089°59'0 0.0
2015-Jul-21 17:33N 30°00' W 089°59'3 2.5
2015-Jul-21 16:33N 29°58' W 090°02'1 0.5
2015-Jul-21 15:32N 29°58' W 090°02'0 0.4
2015-Jul-21 14:33N 29°58' W 090°02'3 2.7
2015-Jul-21 13:33N 30°00' W 089°59'0 0.0
2015-Jul-21 12:33N 30°00' W 089°59'0 0.0
2015-Jul-21 11:31N 30°00' W 089°59'2 1.9
2015-Jul-21 10:33N 29°59' W 090°01'2 1.6
2015-Jul-21 09:31N 29°58' W 090°02'1 0.5
2015-Jul-21 08:29N 29°57' W 090°02'1 0.9
2015-Jul-21 07:26N 29°58' W 090°01'0 0.0
2015-Jul-21 06:31N 29°58' W 090°02'0 0.0
2015-Jul-21 05:25N 29°58' W 090°02'  
Track history (hours):
 
Tides and Currents Weather Stations Pressure Air Temp Water Temp Dewpoint Dewpoint Depression Visibility Wind Speed Wind Dir Waves Ship Positions

MV Lockmaster

Owner: River Construction, Metaire, LA. More information available from US FCC via Universal Licensing System and Coast Guard Vessel Documentation Center.

Last reported at 2015-Jul-30 22:28 UTC. Time now 2015-Jul-30 23:00 UTC.
Position N 29°60' W 089°59'.

Type: Towing. MMSI: 367448420.

Date/timePositionNaut miles runAvg speedWind from/ knotsBaromVisibWave heightAir tempDewpointWater temp
2015-Jul-30 22:28N 29°60' W 089°59'0 0.0
2015-Jul-30 21:33N 30°00' W 089°59'0 0.0
2015-Jul-30 20:33N 29°60' W 089°59'0 0.0
2015-Jul-30 19:29N 30°00' W 089°59'0 0.0
2015-Jul-30 18:33N 30°00' W 089°59'0 0.0
2015-Jul-30 17:32N 30°00' W 089°59'0 0.0
2015-Jul-30 16:28N 30°00' W 089°59'0 0.0
2015-Jul-30 15:24N 30°00' W 089°59'3 0.2
2015-Jul-29 21:04N 29°58' W 090°02'0 0.0
2015-Jul-29 20:32N 29°58' W 090°02'1 0.5
2015-Jul-29 19:07N 29°57' W 090°01'1 1.3
2015-Jul-29 18:28N 29°58' W 090°02'3 2.9
2015-Jul-29 17:32N 29°60' W 089°59'0 0.0
2015-Jul-29 16:31N 30°00' W 089°59'0 0.0
2015-Jul-29 15:19N 30°00' W 089°59'0 0.0
2015-Jul-29 14:26N 29°60' W 089°59'0 0.0
2015-Jul-29 13:24N 30°00' W 089°59'0 0.0
2015-Jul-29 12:32N 30°00' W 089°59'0 0.0
2015-Jul-29 11:31N 30°00' W 089°59'0 0.0
2015-Jul-29 10:33N 30°00' W 089°59'0 0.0
2015-Jul-29 09:32N 30°00' W 089°59'0 0.0
2015-Jul-29 08:33N 30°00' W 089°59'0 0.0
2015-Jul-29 07:30N 29°60' W 089°59'0 0.0
2015-Jul-29 06:29N 30°00' W 089°59'0 0.0
2015-Jul-29 04:33N 30°00' W 089°59'0 0.0
2015-Jul-29 03:30N 30°00' W 089°59'0 0.0
2015-Jul-29 02:31N 29°60' W 089°59'0 0.0
2015-Jul-29 01:29N 30°00' W 089°59'2 0.4
2015-Jul-28 18:28N 29°58' W 090°02'0 0.0
2015-Jul-28 16:28N 29°58' W 090°02'2 2.3
2015-Jul-28 15:26N 29°60' W 089°59'1 0.6
2015-Jul-28 14:28N 29°60' W 090°00'2 2.1
2015-Jul-28 13:19N 29°58' W 090°02'0 0.0
2015-Jul-28 12:31N 29°58' W 090°02'0 0.4
2015-Jul-28 11:27N 29°57' W 090°02'2 2.6
2015-Jul-28 10:31N 29°55' W 090°04'0 0.2
2015-Jul-28 09:31N 29°56' W 090°04'3 3.2
2015-Jul-28 08:33N 29°57' W 090°00'2 1.9
2015-Jul-28 07:24N 29°55' W 089°58'4 4.4
2015-Jul-28 06:30N 29°58' W 090°02'2 2.2
2015-Jul-28 05:33N 29°60' W 090°01'1 1.0
2015-Jul-28 04:33N 29°60' W 089°59'0 0.0
2015-Jul-28 03:31N 29°60' W 089°59'0 0.0
2015-Jul-28 02:31N 30°00' W 089°59'0 0.0
2015-Jul-28 01:33N 30°00' W 089°59'0 0.0
2015-Jul-28 00:28N 30°00' W 089°59'0 0.0
2015-Jul-27 23:33N 29°60' W 089°59'0 0.0
2015-Jul-27 22:33N 30°00' W 089°59'0 0.0
2015-Jul-27 21:32N 30°00' W 089°59'0 0.0
2015-Jul-27 06:28N 30°00' W 089°59'0 0.0
2015-Jul-27 03:18N 29°60' W 089°59'0 0.0
2015-Jul-27 01:23N 30°00' W 089°59'0 0.0
2015-Jul-27 00:26N 29°60' W 089°59'0 0.0
2015-Jul-26 23:28N 30°00' W 089°59'0 0.0
2015-Jul-26 22:32N 29°60' W 089°59'0 0.0
2015-Jul-26 21:18N 30°00' W 089°59'0 0.0
2015-Jul-26 20:17N 30°00' W 089°59'0 0.0
2015-Jul-26 19:31N 29°60' W 089°59'0 0.0
2015-Jul-26 18:33N 30°00' W 089°59'0 0.0
2015-Jul-26 17:32N 29°60' W 089°59'0 0.0
2015-Jul-26 16:32N 30°00' W 089°59'0 0.0
2015-Jul-26 15:32N 30°00' W 089°59'0 0.1
2015-Jul-26 14:33N 29°60' W 089°59'0 0.1
2015-Jul-26 13:32N 30°00' W 089°59'0 0.0
2015-Jul-26 12:33N 30°00' W 089°59'0 0.0
2015-Jul-26 11:33N 30°00' W 089°59'0 0.0
2015-Jul-26 10:33N 30°00' W 089°59'0 0.0
2015-Jul-26 09:30N 30°00' W 089°59'0 0.0
2015-Jul-26 08:32N 30°00' W 089°59'0 0.0
2015-Jul-26 07:32N 29°60' W 089°59'0 0.0
2015-Jul-26 06:32N 30°00' W 089°59'0 0.0
2015-Jul-26 05:33N 29°60' W 089°59'0 0.0
2015-Jul-26 04:33N 30°00' W 089°59'0 0.0
2015-Jul-26 03:23N 29°60' W 089°59'0 0.0
2015-Jul-25 08:19N 30°00' W 089°59'0 0.1
2015-Jul-25 06:32N 30°00' W 089°59'4 3.5
2015-Jul-25 05:31N 29°58' W 090°02'0 0.3
2015-Jul-25 04:28N 29°57' W 090°02'1 0.7
2015-Jul-25 03:32N 29°58' W 090°02'2 1.8
2015-Jul-25 02:33N 29°60' W 090°01'1 1.2
2015-Jul-25 01:33N 29°60' W 089°59'0 0.0
2015-Jul-25 00:24N 30°00' W 089°59'0 0.0
2015-Jul-24 23:32N 30°00' W 089°59'2 2.3
2015-Jul-24 22:33N 29°59' W 090°02'0 0.0
2015-Jul-24 21:33N 29°59' W 090°02'1 0.8
2015-Jul-24 20:33N 29°58' W 090°02'1 0.5
2015-Jul-24 19:33N 29°57' W 090°02'2 0.8
2015-Jul-24 17:30N 29°56' W 090°00'2 2.4
2015-Jul-24 16:33N 29°58' W 090°02'1 1.0
2015-Jul-24 15:34N 29°59' W 090°01'2 1.6
2015-Jul-24 14:31N 30°00' W 089°59'0 0.0
2015-Jul-24 13:33N 30°00' W 089°59'0 0.0
2015-Jul-24 12:33N 30°00' W 089°59'1 0.9
2015-Jul-24 11:33N 29°60' W 090°00'1 0.0
2015-Jul-23 15:22N 30°00' W 089°59'0 0.0
2015-Jul-23 14:13N 30°00' W 089°59'0 0.0
2015-Jul-23 11:28N 30°00' W 089°59'0 0.0
2015-Jul-23 10:33N 30°00' W 089°59'0 0.0
2015-Jul-23 09:31N 30°00' W 089°59'0 0.0
2015-Jul-23 08:33N 29°60' W 089°59'0 0.0
2015-Jul-23 07:33N 29°60' W 089°59'0 0.0
2015-Jul-23 06:31N 30°00' W 089°59'0 0.0
2015-Jul-23 05:32N 29°60' W 089°59'0 0.1
2015-Jul-23 04:32N 29°60' W 089°59'1 0.6
2015-Jul-23 02:19N 30°00' W 089°58'1 1.8
2015-Jul-23 01:31N 30°00' W 089°59'0 0.0
2015-Jul-23 00:31N 30°00' W 089°59'0 0.0
2015-Jul-22 23:32N 30°00' W 089°59'0 0.0
2015-Jul-22 22:31N 30°00' W 089°59'0 0.0
2015-Jul-22 21:27N 30°00' W 089°59'0 0.0
2015-Jul-22 20:26N 30°00' W 089°59'0 0.0
2015-Jul-22 19:29N 30°00' W 089°59'1 0.0
2015-Jul-21 21:29N 30°00' W 089°58'1 1.1
2015-Jul-21 20:32N 30°00' W 089°59'0 0.0
2015-Jul-21 19:31N 30°00' W 089°59'0 0.0
2015-Jul-21 18:33N 30°00' W 089°59'0 0.0
2015-Jul-21 17:33N 30°00' W 089°59'3 2.5
2015-Jul-21 16:33N 29°58' W 090°02'1 0.5
2015-Jul-21 15:32N 29°58' W 090°02'0 0.4
2015-Jul-21 14:33N 29°58' W 090°02'3 2.7
2015-Jul-21 13:33N 30°00' W 089°59'0 0.0
2015-Jul-21 12:33N 30°00' W 089°59'0 0.0
2015-Jul-21 11:31N 30°00' W 089°59'2 1.9
2015-Jul-21 10:33N 29°59' W 090°01'2 1.6
2015-Jul-21 09:31N 29°58' W 090°02'1 0.5
2015-Jul-21 08:29N 29°57' W 090°02'1 0.9
2015-Jul-21 07:26N 29°58' W 090°01'0 0.0
2015-Jul-21 06:31N 29°58' W 090°02'0 0.0
2015-Jul-21 05:25N 29°58' W 090°02'  

Dump ship's entire track history